Terminal Aerodrome Forecast
Issued by NWS

Home | Current Version | Previous Version | Text Only | Print | Product List | Glossary On
Versions: 1 2 3 4 5 6 7 8 9 10 11 12 13 14 15 16 17 18 19 20 21 22 23 24 25 26 27 28 29 30
000
FTUS45 KSLC 050211 AAB
TAF36U
TAF AMD
K36U 050211Z 0502/0524 22011KT P6SM VCTS SCT070CB BKN120
      TEMPO 0502/0503 VRB15G30KT 5SM TSRA BKN070CB
     FM050400 VRB05KT P6SM VCSH SCT070 BKN100
     FM051900 23008KT P6SM SCT110=

USA.gov is the U.S. government's official web portal to all federal, state and local government web resources and services.